createdAt,value
2023-02-03T00:00:09.679Z,53.78
2023-02-03T00:02:40.595Z,45.40
2023-02-03T00:05:09.745Z,46.55
2023-02-03T00:07:40.015Z,45.13
2023-02-03T00:10:08.909Z,40.63
2023-02-03T00:12:37.255Z,44.22
2023-02-03T00:15:06.206Z,48.45
2023-02-03T00:17:34.723Z,57.03
2023-02-03T00:20:02.923Z,59.08
2023-02-03T00:22:31.321Z,54.58
2023-02-03T00:24:59.807Z,44.28
2023-02-03T00:27:28.319Z,38.83
2023-02-03T00:29:56.888Z,36.72
2023-02-03T00:32:25.194Z,39.17
2023-02-03T00:34:54.931Z,33.67
2023-02-03T00:37:23.585Z,40.83
2023-02-03T00:39:51.909Z,38.03
2023-02-03T00:42:20.431Z,38.60
2023-02-03T00:44:48.792Z,39.70
2023-02-03T00:47:17.287Z,37.75
2023-02-03T00:49:45.634Z,37.58
2023-02-03T00:52:13.999Z,41.47
2023-02-03T00:54:42.293Z,44.10
2023-02-03T00:57:10.723Z,40.45
2023-02-03T00:59:40.513Z,45.55
2023-02-03T01:02:10.523Z,51.47
2023-02-03T01:04:38.883Z,81.68
2023-02-03T01:07:07.216Z,76.13
2023-02-03T01:09:37.964Z,80.53
2023-02-03T01:12:06.856Z,87.47
2023-02-03T01:14:35.430Z,100.13
2023-02-03T01:17:05.536Z,101.35
2023-02-03T01:19:34.039Z,96.78
2023-02-03T01:22:02.401Z,95.85
2023-02-03T01:24:31.574Z,83.95
2023-02-03T01:26:59.898Z,75.10
2023-02-03T01:29:29.365Z,82.75
2023-02-03T01:31:57.887Z,69.75
2023-02-03T01:34:26.239Z,73.63
2023-02-03T01:36:54.501Z,71.22
2023-02-03T01:39:23.181Z,65.07
2023-02-03T01:41:51.543Z,59.58
2023-02-03T01:44:48.481Z,73.10
2023-02-03T01:47:47.307Z,71.60
2023-02-03T01:50:18.191Z,82.68
2023-02-03T01:52:51.586Z,77.05
2023-02-03T01:55:24.166Z,76.03
2023-02-03T01:58:30.171Z,73.18
2023-02-03T02:00:59.416Z,72.20
2023-02-03T02:03:55.844Z,66.88
2023-02-03T02:06:24.149Z,73.85
2023-02-03T02:08:54.629Z,71.70
2023-02-03T02:11:22.885Z,68.38
2023-02-03T02:13:54.279Z,70.32
2023-02-03T02:16:58.357Z,67.97
2023-02-03T02:19:57.393Z,70.72
2023-02-03T02:23:04.185Z,75.05
2023-02-03T02:26:29.564Z,78.63
2023-02-03T02:29:06.903Z,89.93
2023-02-03T02:32:21.937Z,93.75
2023-02-03T02:35:08.615Z,100.00
2023-02-03T02:38:08.029Z,95.60
2023-02-03T02:40:39.390Z,104.60
2023-02-03T02:44:03.869Z,99.28
2023-02-03T02:46:38.625Z,100.35
2023-02-03T02:49:20.909Z,100.15
2023-02-03T02:51:50.379Z,105.93
2023-02-03T02:54:25.880Z,116.13
2023-02-03T02:56:58.617Z,121.50
2023-02-03T02:59:29.882Z,123.07
2023-02-03T03:01:58.219Z,117.78
2023-02-03T03:04:29.640Z,118.13
2023-02-03T03:07:21.313Z,111.90
2023-02-03T03:09:58.405Z,116.57
2023-02-03T03:12:37.064Z,120.30
2023-02-03T03:15:10.404Z,115.30
2023-02-03T03:18:14.399Z,114.95
2023-02-03T03:20:44.845Z,112.90
2023-02-03T03:23:44.193Z,112.97
2023-02-03T03:26:22.597Z,110.38
2023-02-03T03:29:00.900Z,100.68
2023-02-03T03:31:29.303Z,101.97
2023-02-03T03:33:57.771Z,105.82
2023-02-03T03:36:28.035Z,101.82
2023-02-03T03:39:04.479Z,105.10
2023-02-03T03:42:00.754Z,99.03
2023-02-03T03:44:36.631Z,92.50
2023-02-03T03:47:38.990Z,87.25
2023-02-03T03:50:11.789Z,88.43
2023-02-03T03:52:41.304Z,86.47
2023-02-03T03:55:12.186Z,87.55
2023-02-03T03:57:49.540Z,87.03
2023-02-03T04:00:22.175Z,75.90
2023-02-03T04:02:54.461Z,110.70
2023-02-03T04:05:24.045Z,102.45
2023-02-03T04:07:52.166Z,93.32
2023-02-03T04:10:33.331Z,90.85
2023-02-03T04:13:02.226Z,92.15
2023-02-03T04:15:31.773Z,77.60
2023-02-03T04:18:00.117Z,70.00
2023-02-03T04:20:29.995Z,69.00
2023-02-03T04:22:59.026Z,67.45
2023-02-03T04:25:27.784Z,70.18
2023-02-03T04:27:56.820Z,64.38
2023-02-03T04:30:25.581Z,61.42
2023-02-03T04:32:54.689Z,60.88
2023-02-03T04:35:23.368Z,64.60
2023-02-03T04:37:51.833Z,64.07
2023-02-03T04:40:20.397Z,64.57
2023-02-03T04:42:48.664Z,61.47
2023-02-03T04:45:17.185Z,62.67
2023-02-03T04:47:45.649Z,57.28
2023-02-03T04:50:13.982Z,60.95
2023-02-03T04:52:42.606Z,63.78
2023-02-03T04:55:10.906Z,60.22
2023-02-03T04:57:39.201Z,62.33
2023-02-03T05:00:08.290Z,59.33
2023-02-03T05:02:36.591Z,58.22
2023-02-03T05:05:05.240Z,60.40
2023-02-03T05:07:33.579Z,59.90
2023-02-03T05:10:02.027Z,58.28
2023-02-03T05:12:30.268Z,62.97
2023-02-03T05:14:58.654Z,61.08
2023-02-03T05:17:27.040Z,60.25
2023-02-03T05:19:55.348Z,59.13
2023-02-03T05:22:23.970Z,60.97
2023-02-03T05:24:52.311Z,60.50
2023-02-03T05:27:20.537Z,52.30
2023-02-03T05:29:48.943Z,61.30
2023-02-03T05:32:17.402Z,57.33
2023-02-03T05:34:45.801Z,60.88
2023-02-03T05:37:14.129Z,55.13
2023-02-03T05:39:42.489Z,66.80
2023-02-03T05:42:10.868Z,58.30
2023-02-03T05:44:39.264Z,57.50
2023-02-03T05:47:07.738Z,62.75
2023-02-03T05:49:36.061Z,63.15
2023-02-03T05:52:04.672Z,55.17
2023-02-03T05:54:32.884Z,51.40
2023-02-03T05:57:04.026Z,45.88
2023-02-03T05:59:33.699Z,47.50
2023-02-03T06:02:02.130Z,48.90
2023-02-03T06:04:30.755Z,49.95
2023-02-03T06:06:59.130Z,49.95
2023-02-03T06:09:27.460Z,48.13
2023-02-03T06:11:55.875Z,43.65
2023-02-03T06:14:24.158Z,45.38
2023-02-03T06:19:42.533Z,47.85
2023-02-03T06:22:10.863Z,47.78
2023-02-03T06:24:39.293Z,42.33
2023-02-03T06:27:07.389Z,54.13
2023-02-03T06:29:35.648Z,54.58
2023-02-03T06:32:04.135Z,57.08
2023-02-03T06:34:33.565Z,56.03
2023-02-03T06:37:01.909Z,47.42
2023-02-03T06:39:30.115Z,45.05
2023-02-03T06:41:58.375Z,44.42
2023-02-03T06:44:26.753Z,40.13
2023-02-03T06:46:55.142Z,40.35
2023-02-03T06:49:23.641Z,45.72
2023-02-03T06:51:52.404Z,43.50
2023-02-03T06:54:20.798Z,41.97
2023-02-03T06:56:49.131Z,41.22
2023-02-03T06:59:17.359Z,39.75
2023-02-03T07:01:45.739Z,39.97
2023-02-03T07:04:14.028Z,41.03
2023-02-03T07:06:42.213Z,37.92
2023-02-03T07:09:10.690Z,34.38
2023-02-03T07:11:38.914Z,33.70
2023-02-03T07:14:07.298Z,32.00
2023-02-03T07:16:35.719Z,27.02
2023-02-03T07:19:04.687Z,25.20
2023-02-03T07:21:33.312Z,24.88
2023-02-03T07:24:01.591Z,23.13
2023-02-03T07:26:30.009Z,29.55
2023-02-03T07:28:58.248Z,28.58
2023-02-03T07:31:26.808Z,27.60
2023-02-03T07:33:55.105Z,27.30
2023-02-03T07:36:23.804Z,26.25
2023-02-03T07:38:51.984Z,30.20
2023-02-03T07:41:20.381Z,30.42
2023-02-03T07:43:49.072Z,28.13
2023-02-03T07:46:17.492Z,30.50
2023-02-03T07:48:45.837Z,28.85
2023-02-03T07:51:14.230Z,26.15
2023-02-03T07:53:42.596Z,26.00
2023-02-03T07:56:11.025Z,30.15
2023-02-03T07:58:39.772Z,34.50
2023-02-03T08:01:13.737Z,41.63
2023-02-03T08:03:42.869Z,43.35
2023-02-03T08:06:11.427Z,32.53
2023-02-03T08:08:39.774Z,26.40
2023-02-03T08:11:08.470Z,22.35
2023-02-03T08:13:37.210Z,20.50
2023-02-03T08:16:06.148Z,19.27
2023-02-03T08:18:34.454Z,18.73
2023-02-03T08:21:02.811Z,16.75
2023-02-03T08:23:31.501Z,16.02
2023-02-03T08:25:59.778Z,18.50
2023-02-03T08:28:28.120Z,16.38
2023-02-03T08:30:56.446Z,17.48
2023-02-03T08:33:25.041Z,18.50
2023-02-03T08:35:53.300Z,17.40
2023-02-03T08:38:21.925Z,17.40
2023-02-03T08:40:50.235Z,21.65
2023-02-03T08:43:18.628Z,20.45
2023-02-03T08:45:46.965Z,19.23
2023-02-03T08:48:15.479Z,17.65
2023-02-03T08:50:45.771Z,20.10
2023-02-03T08:53:14.201Z,22.08
2023-02-03T08:55:42.431Z,24.02
2023-02-03T08:58:10.823Z,29.23
2023-02-03T09:00:39.236Z,24.17
2023-02-03T09:03:07.350Z,22.73
2023-02-03T09:05:36.361Z,22.20
2023-02-03T09:08:04.867Z,19.90
2023-02-03T09:10:33.269Z,25.65
2023-02-03T09:13:01.690Z,21.83
2023-02-03T09:15:29.924Z,25.20
2023-02-03T09:17:58.017Z,25.67
2023-02-03T09:20:26.819Z,26.10
2023-02-03T09:22:55.127Z,24.70
2023-02-03T09:25:26.621Z,22.52
2023-02-03T09:27:54.836Z,22.13
2023-02-03T09:30:23.242Z,21.55
2023-02-03T09:32:54.308Z,20.92
2023-02-03T09:35:23.106Z,21.17
2023-02-03T09:37:51.327Z,24.08
2023-02-03T09:40:29.032Z,24.33
2023-02-03T09:43:36.017Z,22.25
2023-02-03T09:46:21.180Z,20.20
2023-02-03T09:49:05.296Z,20.13
2023-02-03T09:51:41.995Z,23.60
2023-02-03T09:54:57.367Z,23.50
2023-02-03T09:57:31.515Z,20.98
2023-02-03T10:00:03.110Z,22.60
2023-02-03T10:02:49.813Z,21.23
2023-02-03T10:05:36.473Z,19.00
2023-02-03T10:08:32.073Z,17.48
2023-02-03T10:11:27.968Z,20.33
2023-02-03T10:14:22.231Z,15.98
2023-02-03T10:17:17.532Z,16.52
2023-02-03T10:19:55.862Z,19.08
2023-02-03T10:22:29.731Z,19.08
2023-02-03T10:25:36.244Z,19.30
2023-02-03T10:28:11.466Z,15.57
2023-02-03T10:30:45.193Z,14.88
2023-02-03T10:33:16.527Z,14.90
2023-02-03T10:36:11.120Z,15.90
2023-02-03T10:39:01.995Z,14.60
2023-02-03T10:41:32.370Z,13.43
2023-02-03T10:44:05.932Z,14.57
2023-02-03T10:46:40.441Z,14.32
2023-02-03T10:49:12.167Z,14.95
2023-02-03T10:51:51.363Z,17.77
2023-02-03T10:54:36.542Z,19.02
2023-02-03T10:57:15.903Z,20.23
2023-02-03T10:59:48.605Z,14.32
2023-02-03T11:02:29.488Z,12.88
2023-02-03T11:05:11.437Z,13.70
2023-02-03T11:07:40.026Z,16.67
2023-02-03T11:10:33.419Z,15.13
2023-02-03T11:13:22.179Z,12.75
2023-02-03T11:16:08.548Z,11.95
2023-02-03T11:18:55.362Z,12.55
2023-02-03T11:21:34.928Z,12.90
2023-02-03T11:24:22.497Z,13.80
2023-02-03T11:27:05.367Z,14.70
2023-02-03T11:29:45.383Z,13.88
2023-02-03T11:32:16.772Z,13.68
2023-02-03T11:35:05.304Z,13.57
2023-02-03T11:37:38.497Z,11.40
2023-02-03T11:40:09.821Z,12.57
2023-02-03T11:42:43.696Z,12.68
2023-02-03T11:45:49.957Z,11.55
2023-02-03T11:48:33.259Z,11.90
2023-02-03T11:51:05.693Z,13.95
2023-02-03T11:53:56.282Z,13.35
2023-02-03T11:56:50.285Z,11.63
2023-02-03T11:59:37.216Z,11.55
2023-02-03T12:02:44.374Z,12.25
2023-02-03T12:05:24.951Z,11.23
2023-02-03T12:08:17.902Z,10.82
2023-02-03T12:11:14.886Z,13.35
2023-02-03T12:14:32.154Z,12.18
2023-02-03T12:17:12.904Z,11.38
2023-02-03T12:19:50.354Z,11.20
2023-02-03T12:22:27.012Z,11.77
2023-02-03T12:25:21.413Z,12.48
2023-02-03T12:28:36.279Z,12.77
2023-02-03T12:31:33.999Z,28.75
2023-02-03T12:34:14.646Z,11.50
2023-02-03T12:36:58.138Z,9.88
2023-02-03T12:39:53.788Z,14.90
2023-02-03T12:42:43.173Z,10.23
2023-02-03T12:45:11.331Z,12.20
2023-02-03T12:47:55.903Z,10.80
2023-02-03T12:50:50.001Z,10.25
2023-02-03T12:53:35.337Z,13.23
2023-02-03T12:56:15.262Z,10.45
2023-02-03T12:58:53.341Z,14.40
2023-02-03T13:01:35.055Z,11.20
2023-02-03T13:04:21.544Z,9.98
2023-02-03T13:06:54.368Z,11.32
2023-02-03T13:09:39.160Z,13.40
2023-02-03T13:12:37.569Z,14.93
2023-02-03T13:15:29.042Z,12.57
2023-02-03T13:18:03.679Z,13.67
2023-02-03T13:20:34.619Z,16.63
2023-02-03T13:23:06.733Z,19.75
2023-02-03T13:26:11.188Z,11.32
2023-02-03T13:28:53.127Z,12.30
2023-02-03T13:31:52.615Z,14.88
2023-02-03T13:34:27.041Z,14.05
2023-02-03T13:37:28.105Z,14.60
2023-02-03T13:40:02.586Z,11.98
2023-02-03T13:42:33.748Z,14.77
2023-02-03T13:45:29.300Z,52.95
2023-02-03T13:48:21.709Z,58.63
2023-02-03T13:51:02.014Z,68.88
2023-02-03T13:53:36.780Z,17.95
2023-02-03T13:56:16.280Z,29.48
2023-02-03T13:58:58.833Z,13.95
2023-02-03T14:01:37.941Z,94.75
2023-02-03T14:04:22.703Z,18.58
2023-02-03T14:06:51.191Z,11.90
2023-02-03T14:09:31.703Z,25.65
2023-02-03T14:12:38.892Z,17.17
2023-02-03T14:15:28.823Z,27.25
2023-02-03T14:17:59.570Z,23.10
2023-02-03T14:20:27.921Z,42.00
2023-02-03T14:23:22.127Z,14.95
2023-02-03T14:25:56.201Z,9.70
2023-02-03T14:28:37.421Z,17.08
2023-02-03T14:31:10.663Z,55.10
2023-02-03T14:34:05.728Z,22.60
2023-02-03T14:36:40.774Z,14.65
2023-02-03T14:39:18.033Z,11.38
2023-02-03T14:42:05.098Z,38.80
2023-02-03T14:44:52.823Z,11.43
2023-02-03T14:47:39.523Z,15.85
2023-02-03T14:50:35.997Z,15.55
2023-02-03T14:53:10.229Z,14.25
2023-02-03T14:55:54.213Z,10.20
2023-02-03T14:58:37.515Z,11.43
2023-02-03T15:01:06.448Z,52.55
2023-02-03T15:03:35.255Z,13.07
2023-02-03T15:06:05.960Z,9.80
2023-02-03T15:08:47.101Z,24.33
2023-02-03T15:11:32.032Z,16.70
2023-02-03T15:14:35.648Z,12.30
2023-02-03T15:17:21.960Z,11.88
2023-02-03T15:19:50.286Z,13.35
2023-02-03T15:22:23.834Z,20.45
2023-02-03T15:25:03.728Z,8.75
2023-02-03T15:27:33.785Z,21.05
2023-02-03T15:30:24.848Z,9.98
2023-02-03T15:33:04.266Z,10.18
2023-02-03T15:35:35.412Z,12.98
2023-02-03T15:38:31.266Z,15.60
2023-02-03T15:40:59.817Z,11.05
2023-02-03T15:43:41.412Z,26.42
2023-02-03T15:46:41.415Z,9.48
2023-02-03T15:49:18.056Z,21.70
2023-02-03T15:52:09.098Z,21.25
2023-02-03T15:54:42.318Z,19.80
2023-02-03T15:57:24.194Z,21.17
2023-02-03T16:00:00.465Z,13.43
2023-02-03T16:02:53.426Z,13.07
2023-02-03T16:05:33.816Z,23.08
2023-02-03T16:08:50.049Z,17.83
2023-02-03T16:11:24.295Z,14.77
2023-02-03T16:13:53.729Z,24.73
2023-02-03T16:16:24.916Z,16.90
2023-02-03T16:19:12.691Z,9.10
2023-02-03T16:21:49.738Z,12.20
2023-02-03T16:24:38.370Z,15.27
2023-02-03T16:27:27.956Z,11.27
2023-02-03T16:30:25.810Z,9.65
2023-02-03T16:33:20.186Z,13.20
2023-02-03T16:35:48.623Z,13.98
2023-02-03T16:38:18.562Z,12.40
2023-02-03T16:40:48.344Z,10.93
2023-02-03T16:43:18.241Z,13.27
2023-02-03T16:45:46.488Z,20.02
2023-02-03T16:48:14.982Z,12.60
2023-02-03T16:50:44.636Z,25.45
2023-02-03T16:53:18.768Z,25.17
2023-02-03T16:55:48.169Z,20.13
2023-02-03T16:58:16.544Z,28.77
2023-02-03T17:00:46.921Z,15.50
2023-02-03T17:03:18.098Z,14.07
2023-02-03T17:05:48.157Z,22.95
2023-02-03T17:08:19.101Z,47.78
2023-02-03T17:10:47.619Z,20.30
2023-02-03T17:13:16.892Z,37.78
2023-02-03T17:15:47.507Z,16.63
2023-02-03T17:18:16.310Z,14.02
2023-02-03T17:20:46.544Z,14.48
2023-02-03T17:23:15.424Z,14.95
2023-02-03T17:25:46.184Z,12.63
2023-02-03T17:28:15.086Z,16.33
2023-02-03T17:30:43.512Z,13.50
2023-02-03T17:33:12.415Z,14.38
2023-02-03T17:35:45.614Z,18.67
2023-02-03T17:38:14.762Z,17.05
2023-02-03T17:54:36.953Z,34.03
2023-02-03T17:57:05.390Z,28.50
2023-02-03T17:59:34.113Z,24.98
2023-02-03T18:02:02.570Z,24.08
2023-02-03T18:04:30.916Z,26.10
2023-02-03T18:06:59.483Z,25.50
2023-02-03T18:09:29.929Z,19.05
2023-02-03T18:11:58.302Z,20.40
2023-02-03T18:14:26.629Z,25.02
2023-02-03T18:16:54.912Z,25.92
2023-02-03T18:19:23.340Z,28.63
2023-02-03T18:21:51.647Z,27.73
2023-02-03T18:24:20.049Z,31.65
2023-02-03T18:26:52.770Z,26.52
2023-02-03T18:29:21.615Z,33.15
2023-02-03T18:31:49.905Z,24.15
2023-02-03T18:34:18.466Z,18.58
2023-02-03T18:36:47.087Z,18.65
2023-02-03T18:39:15.359Z,29.55
2023-02-03T18:41:43.594Z,39.35
2023-02-03T18:44:11.866Z,27.17
2023-02-03T18:46:40.177Z,45.42
2023-02-03T18:49:11.614Z,44.15
2023-02-03T18:51:39.842Z,30.77
2023-02-03T18:54:08.199Z,34.47
2023-02-03T18:56:36.488Z,44.58
2023-02-03T18:59:10.074Z,41.88
2023-02-03T19:01:39.038Z,35.30
2023-02-03T19:04:07.716Z,49.30
2023-02-03T19:06:36.147Z,36.90
2023-02-03T19:09:06.054Z,37.80
2023-02-03T19:11:34.364Z,28.95
2023-02-03T19:14:03.756Z,40.78
2023-02-03T19:16:31.930Z,35.53
2023-02-03T19:19:00.193Z,38.70
2023-02-03T19:21:28.566Z,34.13
2023-02-03T19:23:56.838Z,27.95
2023-02-03T19:26:25.125Z,25.70
2023-02-03T19:28:53.334Z,26.90
2023-02-03T19:31:21.855Z,43.83
2023-02-03T19:33:50.315Z,35.38
2023-02-03T19:36:18.588Z,26.55
2023-02-03T19:38:46.809Z,39.00
2023-02-03T19:41:15.231Z,49.72
2023-02-03T19:43:43.593Z,62.95
2023-02-03T19:46:17.252Z,44.92
2023-02-03T19:48:45.718Z,49.30
2023-02-03T19:51:14.147Z,41.15
2023-02-03T19:53:42.608Z,38.67
2023-02-03T19:56:11.013Z,31.25
2023-02-03T19:58:39.412Z,38.80
2023-02-03T20:01:07.821Z,45.28
2023-02-03T20:03:36.362Z,39.80
2023-02-03T20:06:04.719Z,44.40
2023-02-03T20:08:33.141Z,39.90
2023-02-03T20:11:01.698Z,33.63
2023-02-03T20:13:30.349Z,36.83
2023-02-03T20:15:59.321Z,35.67
2023-02-03T20:18:27.933Z,27.30
2023-02-03T20:20:57.360Z,28.05
2023-02-03T20:23:26.142Z,27.90
2023-02-03T20:25:54.900Z,31.95
2023-02-03T20:28:25.602Z,31.67
2023-02-03T20:30:59.867Z,30.92
2023-02-03T20:33:29.817Z,32.03
2023-02-03T20:35:58.987Z,28.75
2023-02-03T20:38:27.206Z,33.72
2023-02-03T20:40:55.508Z,37.53
2023-02-03T20:43:28.255Z,40.63
2023-02-03T20:45:56.905Z,42.67
2023-02-03T20:48:26.353Z,41.05
2023-02-03T20:50:54.804Z,35.65
2023-02-03T20:53:32.360Z,37.78
2023-02-03T20:56:01.391Z,30.95
2023-02-03T20:58:32.830Z,36.50
2023-02-03T21:01:01.470Z,33.05
2023-02-03T21:03:29.720Z,36.08
2023-02-03T21:05:58.229Z,56.83
2023-02-03T21:08:27.921Z,84.05
2023-02-03T21:10:56.394Z,43.58
2023-02-03T21:13:26.720Z,34.75
2023-02-03T21:15:57.344Z,29.52
2023-02-03T21:18:47.545Z,27.73
2023-02-03T21:21:20.279Z,24.75
2023-02-03T21:23:48.544Z,25.80
2023-02-03T21:26:21.320Z,23.45
2023-02-03T21:28:51.871Z,21.27
2023-02-03T21:31:35.263Z,38.13
2023-02-03T21:34:13.028Z,35.30
2023-02-03T21:36:41.287Z,35.28
2023-02-03T21:39:28.977Z,40.97
2023-02-03T21:41:58.598Z,47.03
2023-02-03T21:44:32.020Z,40.17
2023-02-03T21:47:18.664Z,40.90
2023-02-03T21:49:46.904Z,39.22
2023-02-03T21:52:15.199Z,34.47
2023-02-03T21:54:43.743Z,28.98
2023-02-03T21:57:15.108Z,26.83
2023-02-03T21:59:43.549Z,30.25
2023-02-03T22:02:55.553Z,27.13
2023-02-03T22:05:23.905Z,30.75
2023-02-03T22:07:52.059Z,31.08
2023-02-03T22:10:20.712Z,33.17
2023-02-03T22:12:49.089Z,36.58
2023-02-03T22:15:17.449Z,38.00
2023-02-03T22:17:45.813Z,36.78
2023-02-03T22:20:13.928Z,35.22
2023-02-03T22:22:42.169Z,31.55
2023-02-03T22:25:10.523Z,35.50
2023-02-03T22:27:38.742Z,45.17
2023-02-03T22:30:14.045Z,48.67
2023-02-03T22:32:42.497Z,35.90
2023-02-03T22:35:11.512Z,32.25
2023-02-03T22:37:39.793Z,32.85
2023-02-03T22:40:08.452Z,33.45
2023-02-03T22:42:36.798Z,24.88
2023-02-03T22:45:05.798Z,32.97
2023-02-03T22:47:34.056Z,40.55
2023-02-03T22:50:02.541Z,32.33
2023-02-03T22:52:31.879Z,26.95
2023-02-03T22:55:00.265Z,25.05
2023-02-03T22:57:28.669Z,29.02
2023-02-03T22:59:56.961Z,36.78
2023-02-03T23:02:25.297Z,33.53
2023-02-03T23:04:53.639Z,32.88
2023-02-03T23:07:22.085Z,30.50
2023-02-03T23:09:50.418Z,25.95
2023-02-03T23:12:19.035Z,23.75
2023-02-03T23:14:47.321Z,25.50
2023-02-03T23:17:15.535Z,27.50
2023-02-03T23:19:43.916Z,32.67
2023-02-03T23:22:12.098Z,34.35
2023-02-03T23:24:40.776Z,32.72
2023-02-03T23:27:10.474Z,29.05
2023-02-03T23:29:38.735Z,28.15
2023-02-03T23:32:07.751Z,31.27
2023-02-03T23:34:35.930Z,30.45
2023-02-03T23:37:04.317Z,29.30
2023-02-03T23:39:32.639Z,29.77
2023-02-03T23:42:01.039Z,30.02
2023-02-03T23:44:29.479Z,30.17
2023-02-03T23:46:57.664Z,28.88
2023-02-03T23:49:26.025Z,30.58
2023-02-03T23:51:54.460Z,31.83
2023-02-03T23:54:22.728Z,32.75
2023-02-03T23:56:51.693Z,32.42
2023-02-03T23:59:20.739Z,34.53
